Terminal Aerodrome Forecast
Issued by NWS Bismarck, ND

Home | Current Version | Previous Version | Text Only | Print | Product List | Glossary On
Versions: 1 2 3 4 5 6 7 8 9 10 11 12 13 14 15 16 17 18 19
000
FTUS43 KBIS 010500
TAFISN
TAF
KISN 010535Z 0106/0206 VRB03KT P6SM VCSH BKN005 BKN015 OVC025
      TEMPO 0106/0109 3SM BR OVC003
     FM010900 29012KT P6SM VCSH BKN025 OVC035
     FM011500 29017G23KT P6SM SCT025 BKN035 OVC070
     FM012100 30015KT P6SM BKN040 BKN070
     FM020100 30008KT P6SM SCT050 BKN250=

USA.gov is the U.S. government's official web portal to all federal, state and local government web resources and services.